Time;durP1;ratioP1;P1;durP2;ratioP2;P2;SDS_P1;SDS_P2;PMS_P1;PMS_P2;Temp;Humidity;BMP_temperature;BMP_pressure;BME280_temperature;BME280_humidity;BME280_pressure;Samples;Min_cycle;Max_cycle;Signal;HPM_P1;HPM_P2
2023/08/31 00:00:53;;;;;;;;;;;18.10;99.90;;;;;;5112939;28;19939;-68
2023/08/31 00:03:19;;;;;;;;;;;18.30;99.90;;;;;;5095027;28;19924;-71
2023/08/31 00:05:46;;;;;;;;;;;18.20;99.90;;;;;;5099221;28;20029;-72
2023/08/31 00:08:13;;;;;;;;;;;18.30;99.90;;;;;;5109715;28;19919;-71
2023/08/31 00:10:40;;;;;;;;;;;18.30;99.90;;;;;;5112697;28;19915;-70
2023/08/31 00:13:07;;;;;;;;;;;18.50;99.90;;;;;;5112602;28;19977;-72
2023/08/31 00:15:35;;;;;;;;;;;18.50;99.90;;;;;;5111584;28;19911;-72
2023/08/31 00:18:05;;;;;;;;;;;18.60;99.90;;;;;;5104019;28;20272;-71
2023/08/31 00:20:33;;;;;;;;;;;18.80;99.90;;;;;;5092150;28;19961;-72
2023/08/31 00:23:00;;;;;;;;;;;18.90;99.90;;;;;;5087729;28;19950;-72
2023/08/31 00:25:28;;;;;;;;;;;18.90;99.90;;;;;;5111224;28;19957;-70
2023/08/31 00:27:54;;;;;;;;;;;18.80;99.90;;;;;;5108579;28;19912;-69
2023/08/31 00:30:25;;;;;;;;;;;18.80;99.90;;;;;;5110418;28;20348;-72
2023/08/31 00:32:53;;;;;;;;;;;18.90;99.90;;;;;;5110104;28;19961;-71
2023/08/31 00:35:20;;;;;;;;;;;19.00;99.90;;;;;;5109626;28;19912;-72
2023/08/31 00:37:46;;;;;;;;;;;19.10;99.90;;;;;;5108296;28;19935;-72
2023/08/31 00:40:14;;;;;;;;;;;19.10;99.90;;;;;;5090007;28;19908;-72
2023/08/31 00:42:40;;;;;;;;;;;19.10;99.90;;;;;;5097747;28;19972;-71
2023/08/31 00:45:07;;;;;;;;;;;19.10;99.90;;;;;;5106886;28;19951;-73
2023/08/31 00:47:34;;;;;;;;;;;18.90;99.90;;;;;;5111526;28;19991;-71
2023/08/31 00:50:00;;;;;;;;;;;18.80;99.90;;;;;;5111330;28;19930;-69
2023/08/31 00:52:27;;;;;;;;;;;18.80;99.90;;;;;;5111866;28;19972;-68
2023/08/31 00:54:54;;;;;;;;;;;18.60;99.90;;;;;;5111872;28;20312;-67
2023/08/31 00:57:21;;;;;;;;;;;18.60;99.90;;;;;;5111712;28;19912;-72
2023/08/31 00:59:48;;;;;;;;;;;18.60;99.90;;;;;;5110832;28;20364;-66
2023/08/31 01:02:22;;;;;;;;;;;18.60;99.90;;;;;;5111656;28;19912;-68
2023/08/31 01:04:58;;;;;;;;;;;18.60;99.90;;;;;;5094778;28;19919;-68
2023/08/31 01:07:48;;;;;;;;;;;18.90;99.90;;;;;;5091644;28;19916;-67
2023/08/31 01:10:15;;;;;;;;;;;19.10;99.90;;;;;;5091687;28;19912;-68
2023/08/31 01:12:42;;;;;;;;;;;19.30;99.90;;;;;;5097685;28;19908;-68
2023/08/31 01:15:12;;;;;;;;;;;19.50;99.90;;;;;;5111819;28;19951;-69
2023/08/31 01:17:42;;;;;;;;;;;19.70;99.90;;;;;;5099553;28;19913;-70
2023/08/31 01:20:09;;;;;;;;;;;19.90;99.90;;;;;;5096585;28;19920;-72
2023/08/31 01:22:59;;;;;;;;;;;20.00;99.90;;;;;;5106263;28;19915;-70
2023/08/31 01:25:26;;;;;;;;;;;20.20;99.90;;;;;;5095554;28;19919;-71
2023/08/31 01:27:54;;;;;;;;;;;20.10;99.90;;;;;;5113071;28;19912;-69
2023/08/31 01:30:20;;;;;;;;;;;19.90;99.90;;;;;;5108801;28;20405;-72
2023/08/31 01:32:47;;;;;;;;;;;19.70;99.90;;;;;;5100456;28;19916;-69
2023/08/31 01:35:19;;;;;;;;;;;19.50;99.90;;;;;;5096230;28;19963;-67
2023/08/31 01:37:57;;;;;;;;;;;19.60;99.90;;;;;;5114549;28;20041;-69
2023/08/31 01:40:24;;;;;;;;;;;19.80;99.90;;;;;;5107685;28;19915;-68
2023/08/31 01:42:51;;;;;;;;;;;20.00;99.90;;;;;;5100291;28;19923;-70
2023/08/31 01:45:20;;;;;;;;;;;20.30;99.90;;;;;;5114202;28;19912;-71
2023/08/31 01:47:47;;;;;;;;;;;20.50;99.90;;;;;;5114794;28;20268;-66
2023/08/31 01:50:13;;;;;;;;;;;20.70;99.90;;;;;;5113849;28;19912;-71
2023/08/31 01:52:40;;;;;;;;;;;20.80;99.90;;;;;;5110157;28;19911;-66
2023/08/31 01:55:07;;;;;;;;;;;21.00;99.90;;;;;;5101205;28;19912;-69
2023/08/31 01:57:34;;;;;;;;;;;21.20;99.90;;;;;;5107492;28;20433;-73
2023/08/31 02:00:01;;;;;;;;;;;21.30;99.90;;;;;;5110055;28;19923;-73
2023/08/31 02:02:27;;;;;;;;;;;21.40;99.90;;;;;;5116202;27;20246;-70
2023/08/31 02:04:54;;;;;;;;;;;21.40;99.90;;;;;;5111926;28;19919;-73
2023/08/31 02:07:21;;;;;;;;;;;21.40;99.90;;;;;;5114277;28;20555;-69
2023/08/31 02:09:47;;;;;;;;;;;21.20;99.90;;;;;;5111973;28;19961;-71
2023/08/31 02:12:14;;;;;;;;;;;21.10;99.90;;;;;;5111800;28;19907;-73
2023/08/31 02:14:41;;;;;;;;;;;21.20;99.90;;;;;;5097612;28;20314;-71
2023/08/31 02:17:07;;;;;;;;;;;21.40;99.90;;;;;;5099243;28;19972;-69
2023/08/31 02:19:34;;;;;;;;;;;21.60;99.90;;;;;;5109256;28;19912;-72
2023/08/31 02:22:00;;;;;;;;;;;21.80;99.90;;;;;;5106328;28;20671;-72
2023/08/31 02:24:27;;;;;;;;;;;22.20;99.90;;;;;;5113193;28;19915;-67
2023/08/31 02:26:53;;;;;;;;;;;22.30;99.60;;;;;;5113340;28;19950;-71
2023/08/31 02:29:20;;;;;;;;;;;22.50;99.90;;;;;;5114434;28;20015;-71
2023/08/31 02:31:47;;;;;;;;;;;22.50;99.50;;;;;;5113780;28;20376;-74
2023/08/31 02:34:13;;;;;;;;;;;22.80;99.00;;;;;;5108277;28;20372;-73
2023/08/31 02:36:40;;;;;;;;;;;23.30;99.10;;;;;;5113375;28;19957;-71
2023/08/31 02:39:06;;;;;;;;;;;23.60;97.10;;;;;;5114297;28;19908;-69
2023/08/31 02:41:33;;;;;;;;;;;23.90;97.30;;;;;;5114085;28;19912;-66
2023/08/31 02:44:00;;;;;;;;;;;24.10;96.20;;;;;;5101096;28;19931;-74
2023/08/31 02:46:26;;;;;;;;;;;24.60;95.50;;;;;;5110151;28;20364;-69
2023/08/31 02:48:53;;;;;;;;;;;25.00;94.90;;;;;;5113516;28;19912;-69
2023/08/31 02:51:19;;;;;;;;;;;25.70;93.90;;;;;;5113923;28;19912;-67
2023/08/31 02:53:46;;;;;;;;;;;26.70;92.90;;;;;;5100122;28;19912;-73
2023/08/31 02:56:13;;;;;;;;;;;28.10;91.30;;;;;;5093582;28;19908;-67
2023/08/31 02:58:39;;;;;;;;;;;29.00;88.00;;;;;;5093731;28;20284;-67
2023/08/31 03:01:15;;;;;;;;;;;29.40;86.10;;;;;;5093709;28;19908;-66
2023/08/31 03:03:45;;;;;;;;;;;29.90;82.70;;;;;;5104156;28;20391;-67
2023/08/31 03:06:12;;;;;;;;;;;29.80;83.80;;;;;;5113679;28;20010;-67
2023/08/31 03:08:38;;;;;;;;;;;31.10;79.20;;;;;;5113102;28;19908;-67
2023/08/31 03:11:05;;;;;;;;;;;31.20;78.10;;;;;;5112793;28;19960;-69
2023/08/31 03:13:32;;;;;;;;;;;31.60;77.20;;;;;;5098943;28;19966;-69
2023/08/31 03:16:00;;;;;;;;;;;31.90;75.20;;;;;;5099002;28;20417;-68
2023/08/31 03:18:26;;;;;;;;;;;31.60;74.70;;;;;;5112829;28;19937;-75
2023/08/31 03:20:53;;;;;;;;;;;31.70;73.70;;;;;;5113183;28;20003;-76
2023/08/31 03:23:20;;;;;;;;;;;32.10;71.10;;;;;;5112333;28;19915;-75
2023/08/31 03:25:46;;;;;;;;;;;32.60;72.30;;;;;;5113328;28;19999;-71
2023/08/31 03:28:13;;;;;;;;;;;32.50;70.90;;;;;;5112752;28;20003;-70
2023/08/31 03:30:40;;;;;;;;;;;32.90;70.20;;;;;;5111897;28;19908;-75
2023/08/31 03:33:06;;;;;;;;;;;32.80;69.60;;;;;;5109743;28;19919;-72
2023/08/31 03:35:33;;;;;;;;;;;32.70;68.50;;;;;;5111816;28;19915;-74
2023/08/31 03:38:00;;;;;;;;;;;33.00;69.20;;;;;;5112212;28;19908;-71
2023/08/31 03:40:27;;;;;;;;;;;33.40;68.20;;;;;;5112425;28;20311;-72
2023/08/31 03:42:54;;;;;;;;;;;33.70;67.90;;;;;;5103751;28;19994;-70
2023/08/31 03:45:20;;;;;;;;;;;33.80;67.60;;;;;;5106601;28;20713;-67
2023/08/31 03:47:47;;;;;;;;;;;33.00;67.70;;;;;;5093764;28;20463;-69
2023/08/31 03:50:14;;;;;;;;;;;33.00;67.10;;;;;;5112446;28;19923;-69
2023/08/31 03:52:40;;;;;;;;;;;32.80;68.10;;;;;;5106009;28;20407;-70
2023/08/31 03:55:07;;;;;;;;;;;33.50;67.00;;;;;;5097421;28;20000;-69
2023/08/31 03:57:34;;;;;;;;;;;33.60;64.90;;;;;;5112479;28;19919;-70
2023/08/31 04:00:00;;;;;;;;;;;32.60;65.80;;;;;;5111578;28;19916;-71
2023/08/31 04:02:27;;;;;;;;;;;32.10;66.40;;;;;;5109501;28;19908;-70
2023/08/31 04:04:54;;;;;;;;;;;31.40;67.20;;;;;;5111132;28;20363;-73
2023/08/31 04:07:20;;;;;;;;;;;30.50;69.30;;;;;;5112616;28;19964;-68
2023/08/31 04:09:47;;;;;;;;;;;29.10;71.90;;;;;;5111845;28;19986;-70
2023/08/31 04:12:13;;;;;;;;;;;28.30;73.10;;;;;;5105616;28;19911;-71
2023/08/31 04:14:40;;;;;;;;;;;27.60;74.30;;;;;;5110073;28;19916;-68
2023/08/31 04:17:07;;;;;;;;;;;27.10;75.90;;;;;;5111797;28;20006;-68
2023/08/31 04:19:33;;;;;;;;;;;26.50;78.10;;;;;;5112114;28;20007;-69
2023/08/31 04:22:00;;;;;;;;;;;25.90;78.00;;;;;;5111467;28;19915;-70
2023/08/31 04:24:27;;;;;;;;;;;25.50;79.70;;;;;;5101338;28;19927;-69
2023/08/31 04:26:55;;;;;;;;;;;26.10;80.00;;;;;;5111932;28;19907;-67
2023/08/31 04:29:22;;;;;;;;;;;27.50;77.80;;;;;;5102024;28;20349;-69
2023/08/31 04:31:49;;;;;;;;;;;29.00;74.90;;;;;;5111130;28;20003;-68
2023/08/31 04:34:15;;;;;;;;;;;30.40;72.50;;;;;;5094888;28;20010;-70
2023/08/31 04:36:42;;;;;;;;;;;31.60;70.10;;;;;;5103190;28;19912;-72
2023/08/31 04:39:09;;;;;;;;;;;32.50;68.20;;;;;;5110948;28;20357;-70
2023/08/31 04:41:35;;;;;;;;;;;32.30;67.70;;;;;;5111455;28;19919;-72
2023/08/31 04:44:02;;;;;;;;;;;33.10;66.80;;;;;;5097350;28;20327;-72
2023/08/31 04:46:29;;;;;;;;;;;33.90;64.80;;;;;;5109353;28;20364;-69
2023/08/31 04:48:56;;;;;;;;;;;34.00;65.00;;;;;;5107568;28;20436;-68
2023/08/31 04:51:35;;;;;;;;;;;33.90;66.00;;;;;;5098149;28;19948;-70
2023/08/31 04:54:02;;;;;;;;;;;33.90;65.00;;;;;;5096424;28;19919;-67
2023/08/31 04:56:31;;;;;;;;;;;33.60;65.50;;;;;;5109922;28;19915;-69
2023/08/31 04:59:00;;;;;;;;;;;33.80;65.80;;;;;;5112451;28;19908;-71
2023/08/31 05:01:26;;;;;;;;;;;33.90;65.00;;;;;;5095728;28;20379;-68
2023/08/31 05:03:54;;;;;;;;;;;33.70;65.70;;;;;;5108501;28;19966;-68
2023/08/31 05:06:21;;;;;;;;;;;34.10;64.40;;;;;;5095053;28;19912;-75
2023/08/31 05:08:48;;;;;;;;;;;34.00;64.90;;;;;;5114381;28;19958;-69
2023/08/31 05:11:15;;;;;;;;;;;33.70;65.00;;;;;;5108217;28;19912;-67
2023/08/31 05:13:44;;;;;;;;;;;33.60;64.80;;;;;;5106017;28;19908;-70
2023/08/31 05:16:11;;;;;;;;;;;33.90;64.90;;;;;;5115041;28;19973;-67
2023/08/31 05:18:38;;;;;;;;;;;34.20;64.50;;;;;;5115946;28;19908;-73
2023/08/31 05:21:05;;;;;;;;;;;34.20;62.30;;;;;;5106845;28;19939;-70
2023/08/31 05:23:34;;;;;;;;;;;33.20;64.30;;;;;;5114087;28;19920;-70
2023/08/31 05:26:01;;;;;;;;;;;33.20;64.80;;;;;;5113845;28;20306;-69
2023/08/31 05:28:28;;;;;;;;;;;33.10;65.50;;;;;;5115454;28;19915;-71
2023/08/31 05:30:57;;;;;;;;;;;33.40;64.70;;;;;;5113847;28;19919;-72
2023/08/31 05:33:25;;;;;;;;;;;33.60;65.00;;;;;;5103082;28;20325;-73
2023/08/31 05:35:52;;;;;;;;;;;33.40;65.00;;;;;;5113734;28;19934;-76
2023/08/31 05:38:18;;;;;;;;;;;33.70;64.70;;;;;;5108446;28;20387;-69
2023/08/31 05:40:48;;;;;;;;;;;34.30;63.40;;;;;;5104707;28;20258;-72
2023/08/31 05:43:14;;;;;;;;;;;33.50;63.70;;;;;;5109069;28;20384;-69
2023/08/31 05:45:41;;;;;;;;;;;31.80;66.00;;;;;;5107924;27;19924;-69
2023/08/31 05:48:08;;;;;;;;;;;30.70;69.10;;;;;;5109986;28;20326;-73
2023/08/31 05:50:38;;;;;;;;;;;30.50;68.30;;;;;;5103677;28;20279;-68
2023/08/31 05:53:05;;;;;;;;;;;29.30;69.60;;;;;;5093977;28;19908;-75
2023/08/31 05:55:32;;;;;;;;;;;28.30;72.40;;;;;;5096753;27;19912;-72
2023/08/31 05:58:00;;;;;;;;;;;27.70;73.00;;;;;;5093635;28;19965;-72
2023/08/31 06:00:27;;;;;;;;;;;27.60;74.10;;;;;;5099917;27;19958;-73
2023/08/31 06:02:53;;;;;;;;;;;27.90;73.00;;;;;;5099606;28;19908;-71
2023/08/31 06:05:20;;;;;;;;;;;29.30;71.10;;;;;;5112885;28;19991;-75
2023/08/31 06:07:46;;;;;;;;;;;29.20;72.10;;;;;;5112882;28;19915;-72
2023/08/31 06:10:14;;;;;;;;;;;30.50;69.60;;;;;;5106693;28;19958;-72
2023/08/31 06:12:41;;;;;;;;;;;31.70;67.70;;;;;;5099663;28;19908;-69
2023/08/31 06:15:08;;;;;;;;;;;31.70;67.10;;;;;;5111971;28;19946;-68
2023/08/31 06:17:35;;;;;;;;;;;30.90;67.80;;;;;;5113475;28;19908;-71
2023/08/31 06:20:02;;;;;;;;;;;29.80;69.80;;;;;;5106786;28;20473;-69
2023/08/31 06:22:28;;;;;;;;;;;29.00;70.10;;;;;;5093528;28;20729;-73
2023/08/31 06:24:55;;;;;;;;;;;27.60;72.50;;;;;;5101023;27;19972;-72
2023/08/31 06:27:22;;;;;;;;;;;26.80;75.60;;;;;;5113902;28;19915;-70
2023/08/31 06:29:48;;;;;;;;;;;28.10;74.00;;;;;;5107948;28;19912;-71
2023/08/31 06:32:16;;;;;;;;;;;29.10;72.70;;;;;;5095521;28;20284;-69
2023/08/31 06:34:43;;;;;;;;;;;30.00;71.50;;;;;;5107335;27;19919;-69
2023/08/31 06:37:09;;;;;;;;;;;30.50;69.90;;;;;;5109287;28;19919;-72
2023/08/31 06:39:36;;;;;;;;;;;30.50;68.90;;;;;;5110574;28;20473;-71
2023/08/31 06:42:03;;;;;;;;;;;29.40;71.50;;;;;;5093528;28;19914;-69
2023/08/31 06:44:30;;;;;;;;;;;28.80;71.90;;;;;;5109199;27;19920;-74
2023/08/31 06:46:57;;;;;;;;;;;28.30;73.20;;;;;;5113153;28;20376;-73
2023/08/31 06:49:24;;;;;;;;;;;27.90;73.60;;;;;;5112501;28;19918;-74
2023/08/31 06:51:50;;;;;;;;;;;27.10;74.90;;;;;;5092348;28;19912;-70
2023/08/31 06:54:17;;;;;;;;;;;25.90;77.10;;;;;;5093045;28;19908;-72
2023/08/31 06:56:44;;;;;;;;;;;24.90;79.50;;;;;;5113614;28;19915;-74
2023/08/31 06:59:10;;;;;;;;;;;24.10;81.80;;;;;;5111658;28;20010;-70
2023/08/31 07:01:37;;;;;;;;;;;23.40;84.30;;;;;;5094820;28;19954;-71
2023/08/31 07:04:04;;;;;;;;;;;22.80;85.90;;;;;;5097502;28;20007;-73
2023/08/31 07:06:32;;;;;;;;;;;22.20;87.60;;;;;;5111099;28;19916;-70
2023/08/31 07:08:58;;;;;;;;;;;21.70;89.80;;;;;;5112055;28;19911;-70
2023/08/31 07:11:26;;;;;;;;;;;21.20;90.80;;;;;;5108696;27;19919;-71
2023/08/31 07:13:53;;;;;;;;;;;20.90;91.80;;;;;;5098523;28;20257;-69
2023/08/31 07:16:19;;;;;;;;;;;20.60;92.30;;;;;;5086377;28;19943;-72
2023/08/31 07:18:46;;;;;;;;;;;20.30;92.70;;;;;;5092006;28;19919;-71
2023/08/31 07:21:12;;;;;;;;;;;20.10;93.70;;;;;;5108591;27;20253;-69
2023/08/31 07:23:39;;;;;;;;;;;19.80;94.50;;;;;;5112249;28;19924;-70
2023/08/31 07:26:06;;;;;;;;;;;19.60;95.00;;;;;;5106492;28;20387;-72
2023/08/31 07:28:32;;;;;;;;;;;19.40;95.80;;;;;;5111493;28;20110;-69
2023/08/31 07:31:06;;;;;;;;;;;19.30;96.40;;;;;;5109809;28;19919;-71
2023/08/31 07:33:34;;;;;;;;;;;19.20;97.10;;;;;;5104937;28;19908;-69
2023/08/31 07:36:03;;;;;;;;;;;19.00;97.80;;;;;;5105778;28;20440;-67
2023/08/31 07:38:30;;;;;;;;;;;18.90;98.10;;;;;;5109758;28;19916;-67
2023/08/31 07:40:57;;;;;;;;;;;18.80;98.90;;;;;;5122202;27;19922;-71
2023/08/31 07:43:24;;;;;;;;;;;18.70;99.40;;;;;;5118652;27;19931;-72
2023/08/31 07:45:50;;;;;;;;;;;18.50;99.90;;;;;;5100414;28;19920;-71
2023/08/31 07:48:17;;;;;;;;;;;18.40;99.90;;;;;;5095634;28;20002;-71
2023/08/31 07:50:44;;;;;;;;;;;18.30;99.90;;;;;;5103059;28;20033;-69
2023/08/31 07:53:11;;;;;;;;;;;18.20;99.90;;;;;;5100249;28;19916;-73
2023/08/31 07:55:38;;;;;;;;;;;18.20;99.90;;;;;;5089028;28;20023;-73
2023/08/31 07:58:04;;;;;;;;;;;18.10;99.90;;;;;;5086376;28;20273;-71
2023/08/31 08:00:31;;;;;;;;;;;18.00;99.90;;;;;;5109968;28;19912;-73
2023/08/31 08:02:58;;;;;;;;;;;18.00;99.90;;;;;;5092379;28;19914;-66
2023/08/31 08:05:24;;;;;;;;;;;18.00;99.90;;;;;;5106128;28;20388;-66
2023/08/31 08:07:51;;;;;;;;;;;17.90;99.90;;;;;;5097624;28;19907;-66
2023/08/31 08:10:18;;;;;;;;;;;17.80;99.90;;;;;;5109090;28;19912;-65
2023/08/31 08:12:45;;;;;;;;;;;17.80;99.90;;;;;;5095576;28;19909;-70
2023/08/31 08:15:12;;;;;;;;;;;17.70;99.90;;;;;;5101535;28;19988;-69
2023/08/31 08:17:38;;;;;;;;;;;17.70;99.90;;;;;;5099586;28;19912;-67
2023/08/31 08:20:06;;;;;;;;;;;17.70;99.90;;;;;;5109674;28;20003;-67
2023/08/31 08:22:33;;;;;;;;;;;17.70;99.90;;;;;;5105592;28;19912;-67
2023/08/31 08:25:00;;;;;;;;;;;17.60;99.90;;;;;;5112353;28;19919;-66
2023/08/31 08:27:27;;;;;;;;;;;17.50;99.90;;;;;;5106120;28;19912;-66
2023/08/31 08:29:53;;;;;;;;;;;17.50;99.90;;;;;;5108212;28;19918;-67
2023/08/31 08:32:20;;;;;;;;;;;17.40;99.90;;;;;;5096363;28;20414;-65
2023/08/31 08:34:47;;;;;;;;;;;17.40;99.90;;;;;;5095350;28;20368;-65
2023/08/31 08:37:13;;;;;;;;;;;17.40;99.90;;;;;;5090695;28;19908;-65
2023/08/31 08:39:40;;;;;;;;;;;17.40;99.90;;;;;;5107506;28;20306;-69
2023/08/31 08:42:07;;;;;;;;;;;17.40;99.90;;;;;;5103794;28;20335;-67
2023/08/31 08:44:35;;;;;;;;;;;17.30;99.90;;;;;;5102431;28;19965;-66
2023/08/31 08:47:03;;;;;;;;;;;17.20;99.90;;;;;;4962159;28;3647374;-67
2023/08/31 08:49:35;;;;;;;;;;;17.20;99.90;;;;;;5107015;28;19950;-66
2023/08/31 08:52:02;;;;;;;;;;;17.10;99.90;;;;;;5092323;28;19913;-66
2023/08/31 08:54:29;;;;;;;;;;;17.10;99.90;;;;;;5099225;28;19922;-66
2023/08/31 08:56:56;;;;;;;;;;;17.10;99.90;;;;;;5092458;28;19908;-65
2023/08/31 08:59:23;;;;;;;;;;;17.10;99.90;;;;;;5103946;28;20006;-66
2023/08/31 09:01:50;;;;;;;;;;;17.10;99.90;;;;;;5092805;28;19923;-66
2023/08/31 09:04:17;;;;;;;;;;;17.00;99.90;;;;;;5097246;28;20284;-67
2023/08/31 09:06:43;;;;;;;;;;;17.00;99.90;;;;;;5094324;28;19908;-67
2023/08/31 09:09:11;;;;;;;;;;;17.00;99.90;;;;;;5098865;28;19912;-67
2023/08/31 09:11:37;;;;;;;;;;;17.00;99.90;;;;;;5105973;28;19912;-68
2023/08/31 09:14:17;;;;;;;;;;;17.00;99.90;;;;;;5094405;28;19923;-67
2023/08/31 09:16:50;;;;;;;;;;;17.00;99.90;;;;;;5095125;28;20007;-65
2023/08/31 09:19:21;;;;;;;;;;;17.00;99.90;;;;;;5099569;28;20210;-64
2023/08/31 09:21:48;;;;;;;;;;;16.90;99.90;;;;;;5090882;28;19912;-67
2023/08/31 09:24:17;;;;;;;;;;;16.90;99.90;;;;;;5092681;28;19924;-66
2023/08/31 09:26:46;;;;;;;;;;;16.90;99.90;;;;;;5091300;28;19916;-66
2023/08/31 09:29:12;;;;;;;;;;;16.90;99.90;;;;;;5098019;28;19936;-67
2023/08/31 09:31:42;;;;;;;;;;;16.90;99.90;;;;;;5102404;28;20116;-68
2023/08/31 09:34:09;;;;;;;;;;;16.90;99.90;;;;;;5103081;28;19908;-73
2023/08/31 09:36:37;;;;;;;;;;;16.80;99.90;;;;;;5107252;28;19912;-70
2023/08/31 09:39:04;;;;;;;;;;;16.80;99.90;;;;;;5092946;28;19995;-68
2023/08/31 09:41:31;;;;;;;;;;;16.80;99.90;;;;;;5093363;28;19927;-67
2023/08/31 09:44:14;;;;;;;;;;;16.90;99.90;;;;;;5091822;27;19920;-68
2023/08/31 09:46:41;;;;;;;;;;;16.90;99.90;;;;;;5100409;28;19926;-67
2023/08/31 09:49:07;;;;;;;;;;;16.90;99.90;;;;;;5095243;28;20383;-68
2023/08/31 09:51:35;;;;;;;;;;;16.90;99.90;;;;;;5094254;28;19908;-66
2023/08/31 09:54:03;;;;;;;;;;;16.90;99.90;;;;;;5096260;28;20445;-66
2023/08/31 09:56:31;;;;;;;;;;;16.90;99.90;;;;;;5102493;28;19998;-72
2023/08/31 09:58:57;;;;;;;;;;;16.90;99.90;;;;;;5098219;28;19912;-66
2023/08/31 10:01:24;;;;;;;;;;;17.00;99.90;;;;;;5102078;27;20002;-68
2023/08/31 10:03:51;;;;;;;;;;;17.00;99.90;;;;;;5096015;28;19916;-66
2023/08/31 10:06:18;;;;;;;;;;;17.00;99.90;;;;;;5082931;28;19918;-66
2023/08/31 10:08:45;;;;;;;;;;;17.00;99.90;;;;;;5100742;28;19912;-66
2023/08/31 10:11:13;;;;;;;;;;;17.00;99.90;;;;;;5100611;27;20429;-67
2023/08/31 10:13:41;;;;;;;;;;;17.00;99.90;;;;;;5096550;28;19913;-67
2023/08/31 10:16:08;;;;;;;;;;;17.00;99.90;;;;;;5102545;28;19912;-66
2023/08/31 10:18:38;;;;;;;;;;;17.10;99.90;;;;;;5099341;28;20280;-65
2023/08/31 10:21:05;;;;;;;;;;;17.00;99.90;;;;;;5099380;27;20003;-73
2023/08/31 10:23:32;;;;;;;;;;;17.00;99.90;;;;;;5075729;28;19924;-66
2023/08/31 10:25:59;;;;;;;;;;;17.00;99.90;;;;;;5102305;28;19912;-66
2023/08/31 10:28:28;;;;;;;;;;;16.90;99.90;;;;;;5093799;28;19935;-65
2023/08/31 10:31:10;;;;;;;;;;;16.80;99.90;;;;;;5083858;28;19912;-65
2023/08/31 10:33:42;;;;;;;;;;;16.70;99.90;;;;;;5098555;28;19912;-67
2023/08/31 10:36:16;;;;;;;;;;;16.50;99.90;;;;;;5096621;28;19951;-69
2023/08/31 10:38:45;;;;;;;;;;;16.50;99.90;;;;;;5098216;28;19908;-67
2023/08/31 10:41:12;;;;;;;;;;;16.40;99.90;;;;;;5099965;28;20006;-65
2023/08/31 10:43:52;;;;;;;;;;;16.30;99.90;;;;;;5106091;28;19915;-65
2023/08/31 10:46:18;;;;;;;;;;;16.30;99.90;;;;;;5097446;28;19919;-68
2023/08/31 10:48:56;;;;;;;;;;;16.20;99.90;;;;;;5097105;28;19915;-67
2023/08/31 10:51:23;;;;;;;;;;;16.10;99.90;;;;;;5111971;27;19912;-66
2023/08/31 10:53:50;;;;;;;;;;;16.10;99.90;;;;;;5093385;28;19908;-68
2023/08/31 10:56:17;;;;;;;;;;;16.00;99.90;;;;;;5095476;27;19912;-67
2023/08/31 10:58:55;;;;;;;;;;;15.90;99.90;;;;;;5093509;28;19904;-67
2023/08/31 11:01:39;;;;;;;;;;;15.90;99.90;;;;;;5094340;27;19912;-67
2023/08/31 11:04:12;;;;;;;;;;;15.70;99.90;;;;;;5093712;28;19927;-67
2023/08/31 11:06:39;;;;;;;;;;;15.70;99.90;;;;;;5093265;28;19912;-67
2023/08/31 11:09:06;;;;;;;;;;;15.60;99.90;;;;;;5098706;28;19914;-66
2023/08/31 11:11:39;;;;;;;;;;;15.60;99.90;;;;;;5109230;28;19919;-66
2023/08/31 11:14:05;;;;;;;;;;;15.50;99.90;;;;;;5111389;28;19966;-67
2023/08/31 11:16:32;;;;;;;;;;;15.50;99.90;;;;;;5099682;28;20024;-67
2023/08/31 11:18:59;;;;;;;;;;;15.40;99.90;;;;;;5093365;28;20436;-66
2023/08/31 11:21:25;;;;;;;;;;;15.40;99.90;;;;;;5104732;28;19915;-67
2023/08/31 11:23:57;;;;;;;;;;;15.40;99.90;;;;;;5108404;28;19916;-67
2023/08/31 11:26:24;;;;;;;;;;;15.30;99.90;;;;;;5095166;28;19912;-66
2023/08/31 11:28:50;;;;;;;;;;;15.30;99.90;;;;;;5093508;28;19908;-66
2023/08/31 11:31:24;;;;;;;;;;;15.30;99.90;;;;;;5103354;28;19908;-68
2023/08/31 11:33:50;;;;;;;;;;;15.20;99.90;;;;;;5112438;28;20066;-66
2023/08/31 11:36:17;;;;;;;;;;;15.20;99.90;;;;;;5113181;28;19968;-69
2023/08/31 11:38:44;;;;;;;;;;;15.10;99.90;;;;;;5113368;28;19912;-71
2023/08/31 11:41:12;;;;;;;;;;;15.00;99.90;;;;;;5113193;28;20528;-67
2023/08/31 11:43:38;;;;;;;;;;;15.00;99.90;;;;;;5112883;28;19916;-67
2023/08/31 11:46:05;;;;;;;;;;;15.00;99.90;;;;;;5112870;28;20284;-66
2023/08/31 11:48:32;;;;;;;;;;;15.00;99.90;;;;;;5102703;28;19912;-66
2023/08/31 11:50:59;;;;;;;;;;;15.00;99.90;;;;;;5110758;28;19908;-67
2023/08/31 11:53:26;;;;;;;;;;;15.00;99.90;;;;;;5104764;28;20433;-67
2023/08/31 11:55:54;;;;;;;;;;;15.00;99.90;;;;;;5106558;28;19913;-68
2023/08/31 11:58:20;;;;;;;;;;;14.90;99.90;;;;;;5094369;28;20169;-66
2023/08/31 12:00:59;;;;;;;;;;;14.80;99.90;;;;;;5112208;28;20007;-66
2023/08/31 12:03:27;;;;;;;;;;;14.80;99.90;;;;;;5112677;28;20351;-67
2023/08/31 12:05:57;;;;;;;;;;;14.80;99.90;;;;;;5112756;28;19915;-67
2023/08/31 12:08:27;;;;;;;;;;;14.80;99.90;;;;;;5112220;28;20377;-66
2023/08/31 12:10:55;;;;;;;;;;;14.70;99.90;;;;;;5112290;28;19935;-69
2023/08/31 12:13:26;;;;;;;;;;;14.70;99.90;;;;;;5112770;28;19908;-68
2023/08/31 12:15:55;;;;;;;;;;;14.70;99.90;;;;;;5101247;28;19912;-67
2023/08/31 12:18:23;;;;;;;;;;;14.70;99.90;;;;;;5098459;28;19986;-65
2023/08/31 12:20:52;;;;;;;;;;;14.60;99.90;;;;;;5109478;28;19966;-68
2023/08/31 12:23:22;;;;;;;;;;;14.60;99.90;;;;;;5091384;28;19923;-67
2023/08/31 12:25:52;;;;;;;;;;;14.60;99.90;;;;;;5092068;28;20453;-70
2023/08/31 12:28:23;;;;;;;;;;;14.50;99.90;;;;;;5094509;28;19997;-65
2023/08/31 12:30:51;;;;;;;;;;;14.50;99.90;;;;;;5112087;28;20006;-66
2023/08/31 12:33:18;;;;;;;;;;;14.50;99.90;;;;;;5112458;28;19951;-66
2023/08/31 12:35:45;;;;;;;;;;;14.50;99.90;;;;;;5112774;28;19907;-67
2023/08/31 12:38:12;;;;;;;;;;;14.40;99.90;;;;;;5112166;28;19911;-68
2023/08/31 12:40:39;;;;;;;;;;;14.30;99.90;;;;;;5110542;28;20372;-69
2023/08/31 12:43:05;;;;;;;;;;;14.30;99.90;;;;;;5111947;28;19960;-68
2023/08/31 12:45:33;;;;;;;;;;;14.40;99.90;;;;;;5112472;28;19920;-71
2023/08/31 12:48:00;;;;;;;;;;;14.30;99.90;;;;;;5112486;28;19912;-71
2023/08/31 12:50:26;;;;;;;;;;;14.30;99.90;;;;;;5110768;28;20411;-69
2023/08/31 12:52:53;;;;;;;;;;;14.30;99.90;;;;;;5094245;28;19912;-67
2023/08/31 12:55:19;;;;;;;;;;;14.20;99.90;;;;;;5092165;28;20371;-67
2023/08/31 12:57:46;;;;;;;;;;;14.20;99.90;;;;;;5091169;28;20437;-68
2023/08/31 13:00:14;;;;;;;;;;;14.10;99.90;;;;;;5096710;28;19912;-66
2023/08/31 13:02:45;;;;;;;;;;;14.10;99.90;;;;;;5108761;28;19908;-65
2023/08/31 13:05:11;;;;;;;;;;;13.90;99.90;;;;;;5112313;28;19923;-67
2023/08/31 13:07:38;;;;;;;;;;;13.90;99.90;;;;;;5112319;28;19953;-66
2023/08/31 13:10:06;;;;;;;;;;;14.00;99.90;;;;;;5106406;28;19951;-67
2023/08/31 13:12:33;;;;;;;;;;;14.00;99.90;;;;;;5090252;28;19913;-66
2023/08/31 13:15:00;;;;;;;;;;;14.00;99.90;;;;;;5090754;28;19908;-67
2023/08/31 13:17:27;;;;;;;;;;;14.00;99.90;;;;;;5092345;28;19915;-67
2023/08/31 13:19:54;;;;;;;;;;;14.00;99.90;;;;;;5094672;28;19908;-67
2023/08/31 13:22:21;;;;;;;;;;;14.00;99.90;;;;;;5096063;28;19935;-69
2023/08/31 13:24:48;;;;;;;;;;;13.90;99.90;;;;;;5096379;28;20011;-65
2023/08/31 13:27:14;;;;;;;;;;;13.90;99.90;;;;;;5096169;28;19908;-66
2023/08/31 13:29:42;;;;;;;;;;;13.90;99.90;;;;;;5095603;28;19908;-68
2023/08/31 13:32:09;;;;;;;;;;;13.90;99.90;;;;;;5095237;28;19919;-67
2023/08/31 13:34:38;;;;;;;;;;;13.90;99.90;;;;;;5095679;28;19908;-65
2023/08/31 13:37:05;;;;;;;;;;;13.80;99.90;;;;;;5095424;28;19912;-69
2023/08/31 13:39:35;;;;;;;;;;;13.90;99.90;;;;;;5095428;28;19908;-66
2023/08/31 13:42:03;;;;;;;;;;;13.80;99.90;;;;;;5095425;28;19918;-67
2023/08/31 13:44:31;;;;;;;;;;;13.80;99.90;;;;;;5095491;28;20376;-67
2023/08/31 13:46:57;;;;;;;;;;;13.80;99.90;;;;;;5095271;28;20401;-68
2023/08/31 13:49:24;;;;;;;;;;;13.80;99.90;;;;;;5095248;28;19948;-66
2023/08/31 13:51:51;;;;;;;;;;;13.70;99.90;;;;;;5095192;28;20424;-67
2023/08/31 13:54:17;;;;;;;;;;;13.80;99.90;;;;;;5095466;28;19915;-65
2023/08/31 13:56:44;;;;;;;;;;;13.70;99.90;;;;;;5096207;28;19912;-66
2023/08/31 13:59:11;;;;;;;;;;;13.70;99.90;;;;;;5095300;28;19922;-67
2023/08/31 14:01:38;;;;;;;;;;;13.60;99.90;;;;;;5112343;28;19979;-68
2023/08/31 14:04:05;;;;;;;;;;;13.60;99.90;;;;;;5115146;28;19916;-67
2023/08/31 14:06:31;;;;;;;;;;;13.70;99.90;;;;;;5115558;28;20081;-66
2023/08/31 14:08:58;;;;;;;;;;;13.60;99.90;;;;;;5115304;28;19912;-66
2023/08/31 14:11:25;;;;;;;;;;;13.60;99.90;;;;;;5099934;28;19951;-67
2023/08/31 14:13:52;;;;;;;;;;;13.70;99.90;;;;;;5095072;28;20259;-65
2023/08/31 14:16:19;;;;;;;;;;;13.60;99.90;;;;;;5094898;28;19953;-66
2023/08/31 14:18:46;;;;;;;;;;;13.60;99.90;;;;;;5094983;28;19930;-68